sensor_id;sensor_type;location;lat;lon;timestamp;P1;durP1;ratioP1;P2;durP2;ratioP2
74741;SDS011;63265;48.288;16.314;2022-10-01T00:00:23;3.08;;;2.05;;
74741;SDS011;63265;48.288;16.314;2022-10-01T00:02:54;2.75;;;2.20;;
74741;SDS011;63265;48.288;16.314;2022-10-01T00:05:20;2.97;;;2.10;;
74741;SDS011;63265;48.288;16.314;2022-10-01T00:07:46;3.13;;;2.15;;
74741;SDS011;63265;48.288;16.314;2022-10-01T00:10:12;2.58;;;2.22;;
74741;SDS011;63265;48.288;16.314;2022-10-01T00:12:46;3.15;;;2.20;;
74741;SDS011;63265;48.288;16.314;2022-10-01T00:15:13;2.42;;;2.22;;
74741;SDS011;63265;48.288;16.314;2022-10-01T00:17:40;2.78;;;2.05;;
74741;SDS011;63265;48.288;16.314;2022-10-01T00:20:07;3.22;;;2.08;;
74741;SDS011;63265;48.288;16.314;2022-10-01T00:22:35;2.13;;;1.92;;
74741;SDS011;63265;48.288;16.314;2022-10-01T00:25:01;2.53;;;2.30;;
74741;SDS011;63265;48.288;16.314;2022-10-01T00:27:28;2.35;;;1.90;;
74741;SDS011;63265;48.288;16.314;2022-10-01T00:29:55;3.80;;;2.40;;
74741;SDS011;63265;48.288;16.314;2022-10-01T00:32:21;2.97;;;2.42;;
74741;SDS011;63265;48.288;16.314;2022-10-01T00:34:47;2.60;;;2.08;;
74741;SDS011;63265;48.288;16.314;2022-10-01T00:37:13;3.47;;;2.17;;
74741;SDS011;63265;48.288;16.314;2022-10-01T00:39:39;3.40;;;2.20;;
74741;SDS011;63265;48.288;16.314;2022-10-01T00:45:01;1.88;;;1.73;;
74741;SDS011;63265;48.288;16.314;2022-10-01T00:47:28;3.20;;;2.03;;
74741;SDS011;63265;48.288;16.314;2022-10-01T00:52:48;2.10;;;1.90;;
74741;SDS011;63265;48.288;16.314;2022-10-01T00:55:19;2.35;;;2.15;;
74741;SDS011;63265;48.288;16.314;2022-10-01T00:57:49;3.45;;;1.92;;
74741;SDS011;63265;48.288;16.314;2022-10-01T01:00:15;3.03;;;2.10;;
74741;SDS011;63265;48.288;16.314;2022-10-01T01:02:42;2.65;;;2.13;;
74741;SDS011;63265;48.288;16.314;2022-10-01T01:05:08;2.38;;;2.10;;
74741;SDS011;63265;48.288;16.314;2022-10-01T01:07:37;2.90;;;1.98;;
74741;SDS011;63265;48.288;16.314;2022-10-01T01:10:08;2.45;;;2.13;;
74741;SDS011;63265;48.288;16.314;2022-10-01T01:12:40;2.95;;;2.05;;
74741;SDS011;63265;48.288;16.314;2022-10-01T01:18:07;3.13;;;2.15;;
74741;SDS011;63265;48.288;16.314;2022-10-01T01:20:43;3.92;;;2.22;;
74741;SDS011;63265;48.288;16.314;2022-10-01T01:29:12;2.40;;;1.75;;
74741;SDS011;63265;48.288;16.314;2022-10-01T01:31:46;2.88;;;2.35;;
74741;SDS011;63265;48.288;16.314;2022-10-01T01:34:15;2.47;;;2.00;;
74741;SDS011;63265;48.288;16.314;2022-10-01T01:36:46;4.90;;;2.67;;
74741;SDS011;63265;48.288;16.314;2022-10-01T01:39:18;3.97;;;2.30;;
74741;SDS011;63265;48.288;16.314;2022-10-01T01:41:46;3.17;;;2.05;;
74741;SDS011;63265;48.288;16.314;2022-10-01T01:44:26;3.72;;;2.10;;
74741;SDS011;63265;48.288;16.314;2022-10-01T01:46:57;2.40;;;2.08;;
74741;SDS011;63265;48.288;16.314;2022-10-01T01:49:23;2.50;;;2.15;;
74741;SDS011;63265;48.288;16.314;2022-10-01T01:52:07;3.60;;;2.10;;
74741;SDS011;63265;48.288;16.314;2022-10-01T01:54:37;2.95;;;2.10;;
74741;SDS011;63265;48.288;16.314;2022-10-01T01:57:03;2.63;;;2.08;;
74741;SDS011;63265;48.288;16.314;2022-10-01T01:59:31;2.85;;;2.00;;
74741;SDS011;63265;48.288;16.314;2022-10-01T02:02:01;3.15;;;2.20;;
74741;SDS011;63265;48.288;16.314;2022-10-01T02:07:12;2.40;;;2.10;;
74741;SDS011;63265;48.288;16.314;2022-10-01T02:20:41;2.33;;;2.08;;
74741;SDS011;63265;48.288;16.314;2022-10-01T02:23:14;2.65;;;2.10;;
74741;SDS011;63265;48.288;16.314;2022-10-01T02:25:50;2.47;;;2.28;;
74741;SDS011;63265;48.288;16.314;2022-10-01T02:28:21;2.53;;;2.03;;
74741;SDS011;63265;48.288;16.314;2022-10-01T02:30:48;2.20;;;1.85;;
74741;SDS011;63265;48.288;16.314;2022-10-01T02:33:17;2.40;;;2.10;;
74741;SDS011;63265;48.288;16.314;2022-10-01T02:35:47;2.60;;;2.40;;
74741;SDS011;63265;48.288;16.314;2022-10-01T02:38:14;2.75;;;2.47;;
74741;SDS011;63265;48.288;16.314;2022-10-01T02:40:42;3.65;;;2.50;;
74741;SDS011;63265;48.288;16.314;2022-10-01T02:43:12;2.60;;;2.10;;
74741;SDS011;63265;48.288;16.314;2022-10-01T02:45:43;2.67;;;2.17;;
74741;SDS011;63265;48.288;16.314;2022-10-01T02:48:13;3.60;;;2.22;;
74741;SDS011;63265;48.288;16.314;2022-10-01T02:53:18;2.58;;;2.35;;
74741;SDS011;63265;48.288;16.314;2022-10-01T02:56:11;2.28;;;2.08;;
74741;SDS011;63265;48.288;16.314;2022-10-01T02:58:58;2.78;;;1.85;;
74741;SDS011;63265;48.288;16.314;2022-10-01T03:01:23;2.30;;;2.10;;
74741;SDS011;63265;48.288;16.314;2022-10-01T03:03:49;2.63;;;2.40;;
74741;SDS011;63265;48.288;16.314;2022-10-01T03:06:14;3.67;;;2.20;;
74741;SDS011;63265;48.288;16.314;2022-10-01T03:08:40;2.67;;;2.05;;
74741;SDS011;63265;48.288;16.314;2022-10-01T03:11:05;2.40;;;1.98;;
74741;SDS011;63265;48.288;16.314;2022-10-01T03:13:32;2.28;;;2.08;;
74741;SDS011;63265;48.288;16.314;2022-10-01T03:15:59;2.35;;;2.15;;
74741;SDS011;63265;48.288;16.314;2022-10-01T03:18:24;4.05;;;2.13;;
74741;SDS011;63265;48.288;16.314;2022-10-01T03:20:50;3.28;;;2.35;;
74741;SDS011;63265;48.288;16.314;2022-10-01T03:23:15;3.20;;;2.30;;
74741;SDS011;63265;48.288;16.314;2022-10-01T03:25:41;2.72;;;2.35;;
74741;SDS011;63265;48.288;16.314;2022-10-01T03:28:07;2.13;;;1.92;;
74741;SDS011;63265;48.288;16.314;2022-10-01T03:30:32;3.00;;;2.25;;
74741;SDS011;63265;48.288;16.314;2022-10-01T03:32:58;3.10;;;2.33;;
74741;SDS011;63265;48.288;16.314;2022-10-01T03:35:23;2.83;;;2.22;;
74741;SDS011;63265;48.288;16.314;2022-10-01T03:37:49;2.45;;;2.05;;
74741;SDS011;63265;48.288;16.314;2022-10-01T03:40:15;2.25;;;1.98;;
74741;SDS011;63265;48.288;16.314;2022-10-01T03:42:40;3.75;;;2.47;;
74741;SDS011;63265;48.288;16.314;2022-10-01T03:45:06;3.70;;;2.35;;
74741;SDS011;63265;48.288;16.314;2022-10-01T03:47:32;2.33;;;2.13;;
74741;SDS011;63265;48.288;16.314;2022-10-01T03:49:58;2.50;;;2.30;;
74741;SDS011;63265;48.288;16.314;2022-10-01T03:52:23;3.63;;;2.30;;
74741;SDS011;63265;48.288;16.314;2022-10-01T03:54:49;2.50;;;2.10;;
74741;SDS011;63265;48.288;16.314;2022-10-01T03:57:14;2.15;;;1.90;;
74741;SDS011;63265;48.288;16.314;2022-10-01T03:59:40;2.30;;;2.10;;
74741;SDS011;63265;48.288;16.314;2022-10-01T04:02:06;2.53;;;2.20;;
74741;SDS011;63265;48.288;16.314;2022-10-01T04:04:32;4.28;;;2.10;;
74741;SDS011;63265;48.288;16.314;2022-10-01T04:06:58;2.40;;;2.05;;
74741;SDS011;63265;48.288;16.314;2022-10-01T04:09:23;3.83;;;2.20;;
74741;SDS011;63265;48.288;16.314;2022-10-01T04:11:49;3.53;;;2.63;;
74741;SDS011;63265;48.288;16.314;2022-10-01T04:14:15;2.30;;;2.10;;
74741;SDS011;63265;48.288;16.314;2022-10-01T04:16:40;4.15;;;2.40;;
74741;SDS011;63265;48.288;16.314;2022-10-01T04:19:06;2.35;;;2.15;;
74741;SDS011;63265;48.288;16.314;2022-10-01T04:21:31;2.35;;;2.15;;
74741;SDS011;63265;48.288;16.314;2022-10-01T04:23:57;2.35;;;1.92;;
74741;SDS011;63265;48.288;16.314;2022-10-01T04:26:23;3.78;;;2.42;;
74741;SDS011;63265;48.288;16.314;2022-10-01T04:28:49;2.50;;;2.30;;
74741;SDS011;63265;48.288;16.314;2022-10-01T04:31:14;3.03;;;2.30;;
74741;SDS011;63265;48.288;16.314;2022-10-01T04:33:49;2.58;;;2.38;;
74741;SDS011;63265;48.288;16.314;2022-10-01T04:36:16;3.00;;;2.33;;
74741;SDS011;63265;48.288;16.314;2022-10-01T04:38:42;3.80;;;2.20;;
74741;SDS011;63265;48.288;16.314;2022-10-01T04:41:08;2.40;;;2.20;;
74741;SDS011;63265;48.288;16.314;2022-10-01T04:43:34;2.92;;;2.25;;
74741;SDS011;63265;48.288;16.314;2022-10-01T04:46:00;2.60;;;2.40;;
74741;SDS011;63265;48.288;16.314;2022-10-01T04:48:25;2.55;;;2.33;;
74741;SDS011;63265;48.288;16.314;2022-10-01T04:50:51;2.67;;;2.30;;
74741;SDS011;63265;48.288;16.314;2022-10-01T04:53:17;2.40;;;2.20;;
74741;SDS011;63265;48.288;16.314;2022-10-01T04:55:42;3.03;;;2.55;;
74741;SDS011;63265;48.288;16.314;2022-10-01T04:58:08;3.20;;;2.40;;
74741;SDS011;63265;48.288;16.314;2022-10-01T05:00:34;2.50;;;2.30;;
74741;SDS011;63265;48.288;16.314;2022-10-01T05:03:00;2.55;;;2.15;;
74741;SDS011;63265;48.288;16.314;2022-10-01T05:05:26;2.58;;;2.17;;
74741;SDS011;63265;48.288;16.314;2022-10-01T05:07:53;3.88;;;2.33;;
74741;SDS011;63265;48.288;16.314;2022-10-01T05:10:20;3.08;;;2.60;;
74741;SDS011;63265;48.288;16.314;2022-10-01T05:12:46;3.05;;;2.25;;
74741;SDS011;63265;48.288;16.314;2022-10-01T05:15:13;3.33;;;2.40;;
74741;SDS011;63265;48.288;16.314;2022-10-01T05:17:40;3.25;;;2.10;;
74741;SDS011;63265;48.288;16.314;2022-10-01T05:20:15;8.07;;;2.50;;
74741;SDS011;63265;48.288;16.314;2022-10-01T05:22:44;5.35;;;2.55;;
74741;SDS011;63265;48.288;16.314;2022-10-01T05:25:10;5.93;;;2.50;;
74741;SDS011;63265;48.288;16.314;2022-10-01T05:27:36;4.68;;;2.55;;
74741;SDS011;63265;48.288;16.314;2022-10-01T05:30:05;10.68;;;2.78;;
74741;SDS011;63265;48.288;16.314;2022-10-01T05:32:33;10.18;;;2.40;;
74741;SDS011;63265;48.288;16.314;2022-10-01T05:34:59;10.93;;;2.65;;
74741;SDS011;63265;48.288;16.314;2022-10-01T05:37:24;10.80;;;2.65;;
74741;SDS011;63265;48.288;16.314;2022-10-01T05:39:50;8.85;;;2.33;;
74741;SDS011;63265;48.288;16.314;2022-10-01T05:42:15;9.25;;;2.60;;
74741;SDS011;63265;48.288;16.314;2022-10-01T05:44:41;10.32;;;2.67;;
74741;SDS011;63265;48.288;16.314;2022-10-01T05:47:10;8.70;;;2.40;;
74741;SDS011;63265;48.288;16.314;2022-10-01T05:49:39;9.88;;;3.05;;
74741;SDS011;63265;48.288;16.314;2022-10-01T05:52:12;19.25;;;3.03;;
74741;SDS011;63265;48.288;16.314;2022-10-01T05:54:39;9.55;;;2.80;;
74741;SDS011;63265;48.288;16.314;2022-10-01T05:57:08;15.18;;;2.97;;
74741;SDS011;63265;48.288;16.314;2022-10-01T05:59:34;15.40;;;3.13;;
74741;SDS011;63265;48.288;16.314;2022-10-01T06:02:00;25.15;;;3.17;;
74741;SDS011;63265;48.288;16.314;2022-10-01T06:04:26;22.85;;;2.85;;
74741;SDS011;63265;48.288;16.314;2022-10-01T06:06:52;13.35;;;3.40;;
74741;SDS011;63265;48.288;16.314;2022-10-01T06:09:18;15.52;;;2.67;;
74741;SDS011;63265;48.288;16.314;2022-10-01T06:11:43;16.35;;;3.08;;
74741;SDS011;63265;48.288;16.314;2022-10-01T06:14:10;15.18;;;3.22;;
74741;SDS011;63265;48.288;16.314;2022-10-01T06:16:36;20.63;;;3.10;;
74741;SDS011;63265;48.288;16.314;2022-10-01T06:19:02;32.85;;;3.83;;
74741;SDS011;63265;48.288;16.314;2022-10-01T06:21:27;15.20;;;2.78;;
74741;SDS011;63265;48.288;16.314;2022-10-01T06:23:54;12.57;;;2.85;;
74741;SDS011;63265;48.288;16.314;2022-10-01T06:26:20;10.10;;;2.58;;
74741;SDS011;63265;48.288;16.314;2022-10-01T06:28:48;9.35;;;3.00;;
74741;SDS011;63265;48.288;16.314;2022-10-01T06:31:14;10.85;;;2.95;;
74741;SDS011;63265;48.288;16.314;2022-10-01T06:33:41;14.70;;;3.33;;
74741;SDS011;63265;48.288;16.314;2022-10-01T06:36:06;14.88;;;3.05;;
74741;SDS011;63265;48.288;16.314;2022-10-01T06:38:32;13.80;;;2.78;;
74741;SDS011;63265;48.288;16.314;2022-10-01T06:40:58;11.27;;;3.63;;
74741;SDS011;63265;48.288;16.314;2022-10-01T06:43:26;6.65;;;3.25;;
74741;SDS011;63265;48.288;16.314;2022-10-01T06:45:53;9.95;;;3.53;;
74741;SDS011;63265;48.288;16.314;2022-10-01T06:48:20;11.23;;;3.42;;
74741;SDS011;63265;48.288;16.314;2022-10-01T06:50:46;12.65;;;3.50;;
74741;SDS011;63265;48.288;16.314;2022-10-01T06:53:13;9.70;;;3.33;;
74741;SDS011;63265;48.288;16.314;2022-10-01T06:55:41;6.30;;;3.10;;
74741;SDS011;63265;48.288;16.314;2022-10-01T06:58:09;11.25;;;3.35;;
74741;SDS011;63265;48.288;16.314;2022-10-01T07:00:41;7.07;;;2.95;;
74741;SDS011;63265;48.288;16.314;2022-10-01T07:03:13;12.48;;;3.10;;
74741;SDS011;63265;48.288;16.314;2022-10-01T07:05:48;6.90;;;2.72;;
74741;SDS011;63265;48.288;16.314;2022-10-01T07:08:14;7.47;;;3.05;;
74741;SDS011;63265;48.288;16.314;2022-10-01T07:10:41;8.82;;;3.15;;
74741;SDS011;63265;48.288;16.314;2022-10-01T07:13:12;6.50;;;2.47;;
74741;SDS011;63265;48.288;16.314;2022-10-01T07:15:41;9.68;;;2.95;;
74741;SDS011;63265;48.288;16.314;2022-10-01T07:18:07;9.32;;;2.70;;
74741;SDS011;63265;48.288;16.314;2022-10-01T07:20:34;10.68;;;2.85;;
74741;SDS011;63265;48.288;16.314;2022-10-01T07:23:03;8.30;;;3.00;;
74741;SDS011;63265;48.288;16.314;2022-10-01T07:25:30;4.65;;;3.15;;
74741;SDS011;63265;48.288;16.314;2022-10-01T07:27:56;10.32;;;3.03;;
74741;SDS011;63265;48.288;16.314;2022-10-01T07:30:24;5.95;;;2.70;;
74741;SDS011;63265;48.288;16.314;2022-10-01T07:32:50;10.25;;;2.55;;
74741;SDS011;63265;48.288;16.314;2022-10-01T07:35:16;8.60;;;3.00;;
74741;SDS011;63265;48.288;16.314;2022-10-01T07:37:45;9.52;;;2.80;;
74741;SDS011;63265;48.288;16.314;2022-10-01T07:40:11;7.05;;;2.75;;
74741;SDS011;63265;48.288;16.314;2022-10-01T07:42:37;9.07;;;2.63;;
74741;SDS011;63265;48.288;16.314;2022-10-01T07:45:03;8.73;;;2.70;;
74741;SDS011;63265;48.288;16.314;2022-10-01T07:47:30;8.70;;;2.75;;
74741;SDS011;63265;48.288;16.314;2022-10-01T07:49:56;15.18;;;2.97;;
74741;SDS011;63265;48.288;16.314;2022-10-01T07:52:22;10.52;;;3.00;;
74741;SDS011;63265;48.288;16.314;2022-10-01T07:54:48;11.10;;;2.63;;
74741;SDS011;63265;48.288;16.314;2022-10-01T07:57:14;12.32;;;3.25;;
74741;SDS011;63265;48.288;16.314;2022-10-01T07:59:39;14.30;;;3.10;;
74741;SDS011;63265;48.288;16.314;2022-10-01T08:02:11;13.95;;;3.22;;
74741;SDS011;63265;48.288;16.314;2022-10-01T08:04:39;17.65;;;3.42;;
74741;SDS011;63265;48.288;16.314;2022-10-01T08:07:24;8.48;;;2.92;;
74741;SDS011;63265;48.288;16.314;2022-10-01T08:09:49;13.48;;;2.78;;
74741;SDS011;63265;48.288;16.314;2022-10-01T08:12:15;18.55;;;2.80;;
74741;SDS011;63265;48.288;16.314;2022-10-01T08:14:41;11.20;;;3.08;;
74741;SDS011;63265;48.288;16.314;2022-10-01T08:17:07;9.80;;;2.78;;
74741;SDS011;63265;48.288;16.314;2022-10-01T08:19:33;9.70;;;3.03;;
74741;SDS011;63265;48.288;16.314;2022-10-01T08:22:00;13.88;;;2.80;;
74741;SDS011;63265;48.288;16.314;2022-10-01T08:24:26;8.32;;;2.90;;
74741;SDS011;63265;48.288;16.314;2022-10-01T08:26:55;10.27;;;2.90;;
74741;SDS011;63265;48.288;16.314;2022-10-01T08:29:21;12.07;;;2.42;;
74741;SDS011;63265;48.288;16.314;2022-10-01T08:31:47;10.73;;;2.95;;
74741;SDS011;63265;48.288;16.314;2022-10-01T08:34:13;9.63;;;2.78;;
74741;SDS011;63265;48.288;16.314;2022-10-01T08:36:39;7.45;;;3.40;;
74741;SDS011;63265;48.288;16.314;2022-10-01T08:39:05;7.18;;;2.70;;
74741;SDS011;63265;48.288;16.314;2022-10-01T08:44:12;10.57;;;2.78;;
74741;SDS011;63265;48.288;16.314;2022-10-01T08:46:45;20.35;;;3.22;;
74741;SDS011;63265;48.288;16.314;2022-10-01T08:49:16;15.15;;;3.22;;
74741;SDS011;63265;48.288;16.314;2022-10-01T08:54:40;17.90;;;3.58;;
74741;SDS011;63265;48.288;16.314;2022-10-01T08:57:11;21.23;;;3.53;;
74741;SDS011;63265;48.288;16.314;2022-10-01T09:04:46;18.88;;;3.25;;
74741;SDS011;63265;48.288;16.314;2022-10-01T09:07:30;16.30;;;3.22;;
74741;SDS011;63265;48.288;16.314;2022-10-01T09:13:19;11.85;;;3.22;;
74741;SDS011;63265;48.288;16.314;2022-10-01T09:16:02;8.32;;;2.75;;
74741;SDS011;63265;48.288;16.314;2022-10-01T09:18:53;8.10;;;3.10;;
74741;SDS011;63265;48.288;16.314;2022-10-01T09:21:56;10.75;;;2.90;;
74741;SDS011;63265;48.288;16.314;2022-10-01T09:24:35;6.97;;;2.80;;
74741;SDS011;63265;48.288;16.314;2022-10-01T09:27:16;11.13;;;3.33;;
74741;SDS011;63265;48.288;16.314;2022-10-01T09:29:53;17.98;;;3.00;;
74741;SDS011;63265;48.288;16.314;2022-10-01T09:32:26;8.77;;;2.97;;
74741;SDS011;63265;48.288;16.314;2022-10-01T09:34:55;11.23;;;3.10;;
74741;SDS011;63265;48.288;16.314;2022-10-01T09:37:40;17.10;;;3.03;;
74741;SDS011;63265;48.288;16.314;2022-10-01T09:43:02;9.55;;;2.92;;
74741;SDS011;63265;48.288;16.314;2022-10-01T09:45:32;13.73;;;3.30;;
74741;SDS011;63265;48.288;16.314;2022-10-01T09:48:01;16.60;;;3.40;;
74741;SDS011;63265;48.288;16.314;2022-10-01T09:50:38;9.40;;;3.00;;
74741;SDS011;63265;48.288;16.314;2022-10-01T09:53:15;18.58;;;3.58;;
74741;SDS011;63265;48.288;16.314;2022-10-01T09:55:44;12.13;;;2.85;;
74741;SDS011;63265;48.288;16.314;2022-10-01T09:58:17;12.45;;;3.25;;
74741;SDS011;63265;48.288;16.314;2022-10-01T10:00:47;14.38;;;3.00;;
74741;SDS011;63265;48.288;16.314;2022-10-01T10:03:51;12.80;;;3.22;;
74741;SDS011;63265;48.288;16.314;2022-10-01T10:06:16;13.90;;;3.25;;
74741;SDS011;63265;48.288;16.314;2022-10-01T10:08:53;8.18;;;3.15;;
74741;SDS011;63265;48.288;16.314;2022-10-01T10:11:25;16.98;;;3.50;;
74741;SDS011;63265;48.288;16.314;2022-10-01T10:13:56;10.38;;;3.10;;
74741;SDS011;63265;48.288;16.314;2022-10-01T10:21:49;9.52;;;3.10;;
74741;SDS011;63265;48.288;16.314;2022-10-01T10:24:25;15.13;;;3.30;;
74741;SDS011;63265;48.288;16.314;2022-10-01T10:26:55;13.27;;;2.83;;
74741;SDS011;63265;48.288;16.314;2022-10-01T10:29:35;27.10;;;4.43;;
74741;SDS011;63265;48.288;16.314;2022-10-01T10:32:02;34.22;;;4.60;;
74741;SDS011;63265;48.288;16.314;2022-10-01T10:34:41;30.42;;;3.80;;
74741;SDS011;63265;48.288;16.314;2022-10-01T10:37:12;24.92;;;4.25;;
74741;SDS011;63265;48.288;16.314;2022-10-01T10:39:40;20.20;;;3.40;;
74741;SDS011;63265;48.288;16.314;2022-10-01T10:42:12;18.52;;;3.35;;
74741;SDS011;63265;48.288;16.314;2022-10-01T10:44:44;14.52;;;3.38;;
74741;SDS011;63265;48.288;16.314;2022-10-01T10:47:13;17.95;;;3.38;;
74741;SDS011;63265;48.288;16.314;2022-10-01T10:49:47;13.02;;;3.33;;
74741;SDS011;63265;48.288;16.314;2022-10-01T10:52:21;20.08;;;3.50;;
74741;SDS011;63265;48.288;16.314;2022-10-01T10:54:52;14.80;;;3.10;;
74741;SDS011;63265;48.288;16.314;2022-10-01T10:57:28;17.80;;;3.78;;
74741;SDS011;63265;48.288;16.314;2022-10-01T11:02:38;11.65;;;3.47;;
74741;SDS011;63265;48.288;16.314;2022-10-01T11:07:45;12.82;;;3.88;;
74741;SDS011;63265;48.288;16.314;2022-10-01T11:34:26;18.83;;;5.20;;
74741;SDS011;63265;48.288;16.314;2022-10-01T11:40:22;18.35;;;4.93;;
74741;SDS011;63265;48.288;16.314;2022-10-01T11:42:50;14.05;;;5.07;;
74741;SDS011;63265;48.288;16.314;2022-10-01T11:45:22;11.82;;;4.72;;
74741;SDS011;63265;48.288;16.314;2022-10-01T11:47:53;16.77;;;4.97;;
74741;SDS011;63265;48.288;16.314;2022-10-01T11:50:24;11.38;;;4.78;;
74741;SDS011;63265;48.288;16.314;2022-10-01T11:55:33;15.48;;;4.90;;
74741;SDS011;63265;48.288;16.314;2022-10-01T12:06:28;16.05;;;4.63;;
74741;SDS011;63265;48.288;16.314;2022-10-01T12:09:03;11.02;;;4.35;;
74741;SDS011;63265;48.288;16.314;2022-10-01T12:11:40;61.90;;;6.75;;
74741;SDS011;63265;48.288;16.314;2022-10-01T12:14:15;29.88;;;5.63;;
74741;SDS011;63265;48.288;16.314;2022-10-01T12:19:13;24.90;;;5.38;;
74741;SDS011;63265;48.288;16.314;2022-10-01T12:21:55;27.65;;;5.30;;
74741;SDS011;63265;48.288;16.314;2022-10-01T12:24:28;37.10;;;5.55;;
74741;SDS011;63265;48.288;16.314;2022-10-01T12:32:53;30.73;;;5.60;;
74741;SDS011;63265;48.288;16.314;2022-10-01T12:41:20;28.10;;;5.22;;
74741;SDS011;63265;48.288;16.314;2022-10-01T12:47:23;25.50;;;5.03;;
74741;SDS011;63265;48.288;16.314;2022-10-01T12:50:20;16.58;;;4.20;;
74741;SDS011;63265;48.288;16.314;2022-10-01T12:53:04;17.45;;;4.60;;
74741;SDS011;63265;48.288;16.314;2022-10-01T13:04:48;17.58;;;4.28;;
74741;SDS011;63265;48.288;16.314;2022-10-01T13:07:26;20.48;;;4.22;;
74741;SDS011;63265;48.288;16.314;2022-10-01T13:15:51;13.38;;;4.40;;
74741;SDS011;63265;48.288;16.314;2022-10-01T13:18:49;13.88;;;3.92;;
74741;SDS011;63265;48.288;16.314;2022-10-01T13:21:30;16.50;;;4.10;;
74741;SDS011;63265;48.288;16.314;2022-10-01T13:24:02;17.45;;;4.00;;
74741;SDS011;63265;48.288;16.314;2022-10-01T13:32:34;10.55;;;4.07;;
74741;SDS011;63265;48.288;16.314;2022-10-01T13:35:21;14.65;;;3.80;;
74741;SDS011;63265;48.288;16.314;2022-10-01T13:38:24;9.30;;;4.15;;
74741;SDS011;63265;48.288;16.314;2022-10-01T13:40:58;9.27;;;3.40;;
74741;SDS011;63265;48.288;16.314;2022-10-01T13:43:27;13.45;;;4.45;;
74741;SDS011;63265;48.288;16.314;2022-10-01T13:45:54;14.13;;;3.70;;
74741;SDS011;63265;48.288;16.314;2022-10-01T13:48:29;9.70;;;4.10;;
74741;SDS011;63265;48.288;16.314;2022-10-01T13:51:09;11.88;;;3.60;;
74741;SDS011;63265;48.288;16.314;2022-10-01T13:53:43;12.02;;;3.95;;
74741;SDS011;63265;48.288;16.314;2022-10-01T13:56:12;14.85;;;3.65;;
74741;SDS011;63265;48.288;16.314;2022-10-01T13:58:50;16.08;;;4.03;;
74741;SDS011;63265;48.288;16.314;2022-10-01T14:09:04;12.20;;;3.42;;
74741;SDS011;63265;48.288;16.314;2022-10-01T14:12:17;10.95;;;3.67;;
74741;SDS011;63265;48.288;16.314;2022-10-01T14:15:12;13.23;;;3.40;;
74741;SDS011;63265;48.288;16.314;2022-10-01T14:17:58;12.57;;;3.35;;
74741;SDS011;63265;48.288;16.314;2022-10-01T14:20:29;12.32;;;3.40;;
74741;SDS011;63265;48.288;16.314;2022-10-01T14:23:13;8.35;;;3.05;;
74741;SDS011;63265;48.288;16.314;2022-10-01T14:25:50;23.92;;;3.72;;
74741;SDS011;63265;48.288;16.314;2022-10-01T14:31:47;20.45;;;3.75;;
74741;SDS011;63265;48.288;16.314;2022-10-01T14:36:22;11.65;;;3.40;;
74741;SDS011;63265;48.288;16.314;2022-10-01T14:41:46;7.35;;;2.83;;
74741;SDS011;63265;48.288;16.314;2022-10-01T14:44:24;6.40;;;2.78;;
74741;SDS011;63265;48.288;16.314;2022-10-01T14:46:53;5.93;;;2.67;;
74741;SDS011;63265;48.288;16.314;2022-10-01T14:49:27;6.97;;;2.67;;
74741;SDS011;63265;48.288;16.314;2022-10-01T14:52:00;4.45;;;2.40;;
74741;SDS011;63265;48.288;16.314;2022-10-01T14:54:28;4.70;;;2.30;;
74741;SDS011;63265;48.288;16.314;2022-10-01T14:56:56;6.53;;;2.40;;
74741;SDS011;63265;48.288;16.314;2022-10-01T14:59:30;5.72;;;2.10;;
74741;SDS011;63265;48.288;16.314;2022-10-01T15:02:00;4.45;;;2.30;;
74741;SDS011;63265;48.288;16.314;2022-10-01T15:04:27;6.60;;;2.30;;
74741;SDS011;63265;48.288;16.314;2022-10-01T15:06:53;3.90;;;2.30;;
74741;SDS011;63265;48.288;16.314;2022-10-01T15:09:18;5.68;;;2.35;;
74741;SDS011;63265;48.288;16.314;2022-10-01T15:11:48;5.15;;;2.22;;
74741;SDS011;63265;48.288;16.314;2022-10-01T15:14:18;5.68;;;2.67;;
74741;SDS011;63265;48.288;16.314;2022-10-01T15:16:48;4.13;;;2.60;;
74741;SDS011;63265;48.288;16.314;2022-10-01T15:19:16;7.30;;;2.85;;
74741;SDS011;63265;48.288;16.314;2022-10-01T15:21:48;8.57;;;3.15;;
74741;SDS011;63265;48.288;16.314;2022-10-01T15:24:22;4.60;;;3.00;;
74741;SDS011;63265;48.288;16.314;2022-10-01T15:26:55;5.35;;;2.70;;
74741;SDS011;63265;48.288;16.314;2022-10-01T15:29:22;5.40;;;3.00;;
74741;SDS011;63265;48.288;16.314;2022-10-01T15:31:48;6.55;;;3.03;;
74741;SDS011;63265;48.288;16.314;2022-10-01T15:34:17;7.80;;;2.72;;
74741;SDS011;63265;48.288;16.314;2022-10-01T15:36:45;4.93;;;2.60;;
74741;SDS011;63265;48.288;16.314;2022-10-01T15:42:06;5.53;;;2.72;;
74741;SDS011;63265;48.288;16.314;2022-10-01T15:44:43;7.03;;;2.63;;
74741;SDS011;63265;48.288;16.314;2022-10-01T15:50:02;9.88;;;2.70;;
74741;SDS011;63265;48.288;16.314;2022-10-01T15:52:29;5.80;;;2.70;;
74741;SDS011;63265;48.288;16.314;2022-10-01T15:55:16;6.60;;;2.60;;
74741;SDS011;63265;48.288;16.314;2022-10-01T16:00:52;7.47;;;2.60;;
74741;SDS011;63265;48.288;16.314;2022-10-01T16:03:38;6.38;;;2.60;;
74741;SDS011;63265;48.288;16.314;2022-10-01T16:06:23;5.95;;;2.50;;
74741;SDS011;63265;48.288;16.314;2022-10-01T16:09:03;7.97;;;2.65;;
74741;SDS011;63265;48.288;16.314;2022-10-01T16:11:57;7.93;;;2.70;;
74741;SDS011;63265;48.288;16.314;2022-10-01T16:14:29;3.95;;;2.45;;
74741;SDS011;63265;48.288;16.314;2022-10-01T16:19:46;12.95;;;6.43;;
74741;SDS011;63265;48.288;16.314;2022-10-01T16:22:31;25.67;;;10.45;;
74741;SDS011;63265;48.288;16.314;2022-10-01T16:24:59;42.42;;;10.90;;
74741;SDS011;63265;48.288;16.314;2022-10-01T16:32:26;78.43;;;27.33;;
74741;SDS011;63265;48.288;16.314;2022-10-01T16:34:52;101.40;;;36.47;;
74741;SDS011;63265;48.288;16.314;2022-10-01T16:37:18;113.22;;;43.42;;
74741;SDS011;63265;48.288;16.314;2022-10-01T16:39:44;137.10;;;49.92;;
74741;SDS011;63265;48.288;16.314;2022-10-01T16:42:16;151.82;;;58.97;;
74741;SDS011;63265;48.288;16.314;2022-10-01T16:44:46;153.68;;;59.60;;
74741;SDS011;63265;48.288;16.314;2022-10-01T16:47:12;169.23;;;55.03;;
74741;SDS011;63265;48.288;16.314;2022-10-01T16:49:38;161.85;;;55.38;;
74741;SDS011;63265;48.288;16.314;2022-10-01T16:52:05;145.40;;;54.20;;
74741;SDS011;63265;48.288;16.314;2022-10-01T16:54:30;128.70;;;53.17;;
74741;SDS011;63265;48.288;16.314;2022-10-01T16:56:56;156.70;;;55.47;;
74741;SDS011;63265;48.288;16.314;2022-10-01T16:59:23;131.23;;;52.08;;
74741;SDS011;63265;48.288;16.314;2022-10-01T17:01:49;134.30;;;53.08;;
74741;SDS011;63265;48.288;16.314;2022-10-01T17:04:18;139.93;;;50.85;;
74741;SDS011;63265;48.288;16.314;2022-10-01T17:06:45;111.43;;;48.55;;
74741;SDS011;63265;48.288;16.314;2022-10-01T17:09:10;136.13;;;48.58;;
74741;SDS011;63265;48.288;16.314;2022-10-01T17:11:36;119.82;;;48.00;;
74741;SDS011;63265;48.288;16.314;2022-10-01T17:14:03;126.13;;;46.25;;
74741;SDS011;63265;48.288;16.314;2022-10-01T17:16:32;122.60;;;43.88;;
74741;SDS011;63265;48.288;16.314;2022-10-01T17:18:58;109.55;;;43.67;;
74741;SDS011;63265;48.288;16.314;2022-10-01T17:21:25;104.07;;;43.47;;
74741;SDS011;63265;48.288;16.314;2022-10-01T17:23:51;101.07;;;41.08;;
74741;SDS011;63265;48.288;16.314;2022-10-01T17:26:17;99.47;;;40.25;;
74741;SDS011;63265;48.288;16.314;2022-10-01T17:28:43;93.75;;;39.40;;
74741;SDS011;63265;48.288;16.314;2022-10-01T17:31:08;93.63;;;38.38;;